createdAt,value
2018-04-18T00:01:44.350Z,19.53
2018-04-18T00:04:12.135Z,18.67
2018-04-18T00:06:39.786Z,19.73
2018-04-18T00:09:07.727Z,21.10
2018-04-18T00:11:35.591Z,20.17
2018-04-18T00:14:03.580Z,20.33
2018-04-18T00:16:31.189Z,18.57
2018-04-18T00:18:59.096Z,21.27
2018-04-18T00:21:26.718Z,21.90
2018-04-18T00:23:54.337Z,20.40
2018-04-18T00:26:21.958Z,20.00
2018-04-18T00:28:49.664Z,19.80
2018-04-18T00:31:17.281Z,20.77
2018-04-18T00:33:44.930Z,20.50
2018-04-18T00:36:12.640Z,22.10
2018-04-18T00:38:40.923Z,21.30
2018-04-18T00:41:08.604Z,20.90
2018-04-18T00:43:36.351Z,20.30
2018-04-18T00:46:03.951Z,19.83
2018-04-18T00:48:32.262Z,20.63
2018-04-18T00:50:59.878Z,19.77
2018-04-18T00:53:27.596Z,20.90
2018-04-18T00:55:55.208Z,19.53
2018-04-18T00:58:22.950Z,20.80
2018-04-18T01:00:50.580Z,22.80
2018-04-18T01:03:18.344Z,23.53
2018-04-18T01:05:45.994Z,22.50
2018-04-18T01:08:13.984Z,22.13
2018-04-18T01:10:41.648Z,23.27
2018-04-18T01:13:09.297Z,22.70
2018-04-18T01:15:36.979Z,23.07
2018-04-18T01:18:04.651Z,21.73
2018-04-18T01:20:32.404Z,23.13
2018-04-18T01:22:59.984Z,23.40
2018-04-18T01:25:27.731Z,21.37
2018-04-18T01:27:55.748Z,20.80
2018-04-18T01:30:23.399Z,21.00
2018-04-18T01:32:51.116Z,21.90
2018-04-18T01:35:18.814Z,23.23
2018-04-18T01:37:46.422Z,23.53
2018-04-18T01:40:14.112Z,21.40
2018-04-18T01:42:42.780Z,20.17
2018-04-18T01:45:10.506Z,21.97
2018-04-18T01:47:38.123Z,23.50
2018-04-18T01:50:05.699Z,24.00
2018-04-18T01:52:33.741Z,21.10
2018-04-18T01:55:02.143Z,22.87
2018-04-18T01:57:29.853Z,21.40
2018-04-18T01:59:57.552Z,21.50
2018-04-18T02:02:25.169Z,23.57
2018-04-18T02:04:52.956Z,21.70
2018-04-18T02:07:20.587Z,22.93
2018-04-18T02:09:48.466Z,23.33
2018-04-18T02:12:16.178Z,23.57
2018-04-18T02:14:43.945Z,21.53
2018-04-18T02:17:11.738Z,23.77
2018-04-18T02:19:39.354Z,23.70
2018-04-18T02:22:07.084Z,24.73
2018-04-18T02:24:34.750Z,23.20
2018-04-18T02:27:02.431Z,25.53
2018-04-18T02:29:30.132Z,22.47
2018-04-18T02:31:57.819Z,23.87
2018-04-18T02:34:25.551Z,22.83
2018-04-18T02:36:53.308Z,21.97
2018-04-18T02:39:21.013Z,21.43
2018-04-18T02:41:48.667Z,23.80
2018-04-18T02:44:16.316Z,23.70
2018-04-18T02:46:44.067Z,25.50
2018-04-18T02:49:11.761Z,23.90
2018-04-18T02:51:39.694Z,22.50
2018-04-18T02:54:07.393Z,24.63
2018-04-18T02:56:35.028Z,24.07
2018-04-18T02:59:02.696Z,27.10
2018-04-18T03:01:30.298Z,23.47
2018-04-18T03:03:58.310Z,22.77
2018-04-18T03:06:25.980Z,22.10
2018-04-18T03:08:53.697Z,24.20
2018-04-18T03:11:21.352Z,25.00
2018-04-18T03:13:48.986Z,24.27
2018-04-18T03:16:16.616Z,23.13
2018-04-18T03:18:44.273Z,25.47
2018-04-18T03:21:11.891Z,23.67
2018-04-18T03:23:39.571Z,23.40
2018-04-18T03:26:07.233Z,24.90
2018-04-18T03:28:34.821Z,24.30
2018-04-18T03:31:02.438Z,24.67
2018-04-18T03:33:30.082Z,23.87
2018-04-18T03:35:57.736Z,26.40
2018-04-18T03:38:25.787Z,24.60
2018-04-18T03:40:53.651Z,25.03
2018-04-18T03:43:21.261Z,25.97
2018-04-18T03:45:48.881Z,25.50
2018-04-18T03:48:16.547Z,26.33
2018-04-18T03:50:44.274Z,24.53
2018-04-18T03:53:11.972Z,30.90
2018-04-18T03:55:39.622Z,25.17
2018-04-18T03:58:07.422Z,24.73
2018-04-18T04:00:35.095Z,26.10
2018-04-18T04:03:02.743Z,25.90
2018-04-18T04:05:30.687Z,25.00
2018-04-18T04:07:58.272Z,25.27
2018-04-18T04:10:25.990Z,25.63
2018-04-18T04:12:53.585Z,25.60
2018-04-18T04:15:21.325Z,24.80
2018-04-18T04:18:00.835Z,26.30
2018-04-18T04:20:40.653Z,25.50
2018-04-18T04:23:20.091Z,26.50
2018-04-18T04:25:47.820Z,27.17
2018-04-18T04:28:15.495Z,27.73
2018-04-18T04:30:43.321Z,26.67
2018-04-18T04:33:11.052Z,26.57
2018-04-18T04:35:38.705Z,26.97
2018-04-18T04:38:06.350Z,26.30
2018-04-18T04:40:33.946Z,27.70
2018-04-18T04:43:01.996Z,26.37
2018-04-18T04:45:29.612Z,25.33
2018-04-18T04:47:57.634Z,25.60
2018-04-18T04:50:26.202Z,24.40
2018-04-18T04:52:53.970Z,24.43
2018-04-18T04:55:21.685Z,26.00
2018-04-18T04:57:49.331Z,26.50
2018-04-18T05:00:16.992Z,24.47
2018-04-18T05:02:44.653Z,26.70
2018-04-18T05:05:12.507Z,26.00
2018-04-18T05:07:40.271Z,26.40
2018-04-18T05:10:07.868Z,25.53
2018-04-18T05:12:35.520Z,28.17
2018-04-18T05:15:03.243Z,28.47
2018-04-18T05:17:30.880Z,26.60
2018-04-18T05:19:58.505Z,29.03
2018-04-18T05:22:26.140Z,27.73
2018-04-18T05:24:53.731Z,29.90
2018-04-18T05:27:21.764Z,26.30
2018-04-18T05:29:49.537Z,31.27
2018-04-18T05:32:17.541Z,28.43
2018-04-18T05:34:45.289Z,29.07
2018-04-18T05:37:12.985Z,27.60
2018-04-18T05:39:40.587Z,31.23
2018-04-18T05:42:08.247Z,32.23
2018-04-18T05:44:35.885Z,31.77
2018-04-18T05:47:03.479Z,33.20
2018-04-18T05:49:31.421Z,32.43
2018-04-18T05:51:59.107Z,34.33
2018-04-18T05:54:26.818Z,33.00
2018-04-18T05:56:54.722Z,33.10
2018-04-18T05:59:23.219Z,33.27
2018-04-18T06:01:50.817Z,30.60
2018-04-18T06:04:18.447Z,32.47
2018-04-18T06:06:46.298Z,32.30
2018-04-18T06:09:13.906Z,30.63
2018-04-18T06:11:41.596Z,35.70
2018-04-18T06:14:09.188Z,34.63
2018-04-18T06:16:36.944Z,34.00
2018-04-18T06:19:04.556Z,32.37
2018-04-18T06:21:32.140Z,33.40
2018-04-18T06:23:59.813Z,34.20
2018-04-18T06:26:27.416Z,34.00
2018-04-18T06:28:55.348Z,34.10
2018-04-18T06:31:22.930Z,34.33
2018-04-18T06:33:50.545Z,35.83
2018-04-18T06:36:18.238Z,33.10
2018-04-18T06:38:46.087Z,31.97
2018-04-18T06:41:13.846Z,34.27
2018-04-18T06:43:41.429Z,31.50
2018-04-18T06:46:09.092Z,32.90
2018-04-18T06:48:36.700Z,31.93
2018-04-18T06:51:04.506Z,31.60
2018-04-18T06:53:32.097Z,29.50
2018-04-18T06:56:00.019Z,25.07
2018-04-18T06:58:27.687Z,27.37
2018-04-18T07:00:55.282Z,26.63
2018-04-18T07:03:22.970Z,26.17
2018-04-18T07:05:51.411Z,21.33
2018-04-18T07:08:19.068Z,21.10
2018-04-18T07:10:46.694Z,20.07
2018-04-18T07:13:14.411Z,19.80
2018-04-18T07:15:42.022Z,19.00
2018-04-18T07:18:09.938Z,19.63
2018-04-18T07:20:37.648Z,21.43
2018-04-18T07:23:05.264Z,19.80
2018-04-18T07:25:33.223Z,19.53
2018-04-18T07:28:00.819Z,19.13
2018-04-18T07:30:28.987Z,20.53
2018-04-18T07:32:56.716Z,17.80
2018-04-18T07:35:24.444Z,16.60
2018-04-18T07:37:52.064Z,18.17
2018-04-18T07:40:19.661Z,17.67
2018-04-18T07:42:47.285Z,15.03
2018-04-18T07:45:14.941Z,14.30
2018-04-18T07:47:42.570Z,14.33
2018-04-18T07:50:10.466Z,17.30
2018-04-18T07:52:38.071Z,14.83
2018-04-18T07:55:06.155Z,14.80
2018-04-18T07:57:33.888Z,15.60
2018-04-18T08:00:01.491Z,13.27
2018-04-18T08:02:29.126Z,14.73
2018-04-18T08:04:57.069Z,13.47
2018-04-18T08:07:24.866Z,13.83
2018-04-18T08:09:52.558Z,12.20
2018-04-18T08:12:20.164Z,13.23
2018-04-18T08:14:47.885Z,12.17
2018-04-18T08:17:15.581Z,10.80
2018-04-18T08:19:43.250Z,11.67
2018-04-18T08:22:11.319Z,10.17
2018-04-18T08:24:39.192Z,9.60
2018-04-18T08:27:06.871Z,10.30
2018-04-18T08:29:34.589Z,9.87
2018-04-18T08:32:02.199Z,9.57
2018-04-18T08:34:29.995Z,7.40
2018-04-18T08:36:57.895Z,7.40
2018-04-18T08:39:25.573Z,6.30
2018-04-18T08:41:53.188Z,5.67
2018-04-18T08:44:20.856Z,6.30
2018-04-18T08:46:48.503Z,7.20
2018-04-18T08:49:16.193Z,8.43
2018-04-18T08:51:43.806Z,8.90
2018-04-18T08:54:11.447Z,9.07
2018-04-18T08:59:16.693Z,9.60
2018-04-18T09:01:44.289Z,7.93
2018-04-18T09:04:12.300Z,10.80
2018-04-18T09:06:40.105Z,9.47
2018-04-18T09:09:07.760Z,10.00
2018-04-18T09:11:35.814Z,10.80
2018-04-18T09:14:03.432Z,12.47
2018-04-18T09:16:31.265Z,9.63
2018-04-18T09:18:58.959Z,10.60
2018-04-18T09:21:26.556Z,9.23
2018-04-18T09:23:54.291Z,11.60
2018-04-18T09:26:21.933Z,9.17
2018-04-18T09:28:49.649Z,9.13
2018-04-18T09:31:17.250Z,9.40
2018-04-18T09:33:44.843Z,7.97
2018-04-18T09:36:12.529Z,9.03
2018-04-18T09:38:40.120Z,9.27
2018-04-18T09:41:08.169Z,8.13
2018-04-18T09:43:36.256Z,8.70
2018-04-18T09:46:04.210Z,8.50
2018-04-18T09:48:31.862Z,8.00
2018-04-18T09:50:59.520Z,7.60
2018-04-18T09:53:27.377Z,7.60
2018-04-18T09:55:55.034Z,7.80
2018-04-18T09:58:23.020Z,7.43
2018-04-18T10:00:56.552Z,8.07
2018-04-18T10:03:24.827Z,8.50
2018-04-18T10:05:52.483Z,7.93
2018-04-18T10:08:20.074Z,8.07
2018-04-18T10:10:47.734Z,7.83
2018-04-18T10:13:15.385Z,8.07
2018-04-18T10:15:43.266Z,9.17
2018-04-18T10:18:10.880Z,7.50
2018-04-18T10:20:38.577Z,7.23
2018-04-18T10:23:06.280Z,6.40
2018-04-18T10:25:33.941Z,6.23
2018-04-18T10:28:01.521Z,5.10
2018-04-18T10:30:29.495Z,4.80
2018-04-18T10:32:57.072Z,6.50
2018-04-18T10:35:24.684Z,6.80
2018-04-18T10:37:52.595Z,6.63
2018-04-18T10:40:20.575Z,5.20
2018-04-18T10:42:48.251Z,3.27
2018-04-18T10:45:16.107Z,5.30
2018-04-18T10:47:43.756Z,5.33
2018-04-18T10:50:11.365Z,5.00
2018-04-18T10:52:39.014Z,5.03
2018-04-18T10:55:06.640Z,5.23
2018-04-18T10:57:34.252Z,6.63
2018-04-18T11:00:01.855Z,6.10
2018-04-18T11:02:29.467Z,5.10
2018-04-18T11:04:57.767Z,6.57
2018-04-18T11:07:25.636Z,5.20
2018-04-18T11:09:53.289Z,6.53
2018-04-18T11:12:21.204Z,7.13
2018-04-18T11:14:48.983Z,7.43
2018-04-18T11:17:16.972Z,6.90
2018-04-18T11:19:44.653Z,6.57
2018-04-18T11:22:12.571Z,7.57
2018-04-18T11:24:40.580Z,6.47
2018-04-18T11:27:08.265Z,8.00
2018-04-18T11:29:35.914Z,7.90
2018-04-18T11:32:03.524Z,7.03
2018-04-18T11:34:31.178Z,7.93
2018-04-18T11:36:58.827Z,9.77
2018-04-18T11:39:26.410Z,7.50
2018-04-18T11:41:54.027Z,7.33
2018-04-18T11:44:21.622Z,6.40
2018-04-18T11:46:49.295Z,8.77
2018-04-18T11:49:16.950Z,8.60
2018-04-18T11:51:44.559Z,8.20
2018-04-18T11:54:12.217Z,7.30
2018-04-18T11:56:39.967Z,8.30
2018-04-18T11:59:07.584Z,8.00
2018-04-18T12:01:35.240Z,6.17
2018-04-18T12:04:02.859Z,6.57
2018-04-18T12:06:30.490Z,6.90
2018-04-18T12:08:58.080Z,6.10
2018-04-18T12:11:26.049Z,7.40
2018-04-18T12:13:53.737Z,7.00
2018-04-18T12:16:21.531Z,7.40
2018-04-18T12:18:49.120Z,8.10
2018-04-18T12:21:16.739Z,6.90
2018-04-18T12:23:44.697Z,7.63
2018-04-18T12:26:12.296Z,7.40
2018-04-18T12:28:39.982Z,7.47
2018-04-18T12:31:07.658Z,8.10
2018-04-18T12:33:35.281Z,8.03
2018-04-18T12:36:03.041Z,6.93
2018-04-18T12:38:30.734Z,9.37
2018-04-18T12:40:58.346Z,7.90
2018-04-18T12:43:26.005Z,9.00
2018-04-18T12:45:53.592Z,7.90
2018-04-18T12:48:21.639Z,6.97
2018-04-18T12:50:49.276Z,7.80
2018-04-18T12:53:17.109Z,7.10
2018-04-18T12:55:44.789Z,6.40
2018-04-18T12:58:12.374Z,7.27
2018-04-18T13:00:39.989Z,8.47
2018-04-18T13:03:07.667Z,7.93
2018-04-18T13:05:35.357Z,7.27
2018-04-18T13:08:03.101Z,7.43
2018-04-18T13:10:30.717Z,8.00
2018-04-18T13:12:58.323Z,9.53
2018-04-18T13:15:26.667Z,8.93
2018-04-18T13:17:54.476Z,8.00
2018-04-18T13:20:22.309Z,9.83
2018-04-18T13:22:50.047Z,8.73
2018-04-18T13:25:17.707Z,9.47
2018-04-18T13:27:45.700Z,8.40
2018-04-18T13:30:13.352Z,7.13
2018-04-18T13:32:41.415Z,8.60
2018-04-18T13:35:09.045Z,10.10
2018-04-18T13:37:36.735Z,9.90
2018-04-18T13:40:04.412Z,11.30
2018-04-18T13:42:32.036Z,10.53
2018-04-18T13:45:00.191Z,11.10
2018-04-18T13:47:27.822Z,12.57
2018-04-18T13:49:55.808Z,9.13
2018-04-18T13:52:23.428Z,11.60
2018-04-18T13:54:51.438Z,10.27
2018-04-18T13:57:19.236Z,12.50
2018-04-18T13:59:46.815Z,9.97
2018-04-18T14:02:14.931Z,11.60
2018-04-18T14:04:42.654Z,12.07
2018-04-18T14:07:10.664Z,13.20
2018-04-18T14:09:38.824Z,11.27
2018-04-18T14:12:06.706Z,11.80
2018-04-18T14:14:34.358Z,11.60
2018-04-18T14:17:02.402Z,12.00
2018-04-18T14:19:30.131Z,12.10
2018-04-18T14:21:58.069Z,11.20
2018-04-18T14:24:25.787Z,12.20
2018-04-18T14:26:53.407Z,11.83
2018-04-18T14:29:21.075Z,13.47
2018-04-18T14:31:48.829Z,13.00
2018-04-18T14:34:16.457Z,13.40
2018-04-18T14:36:44.193Z,13.33
2018-04-18T14:39:12.021Z,14.27
2018-04-18T14:41:39.602Z,12.70
2018-04-18T14:44:07.234Z,13.27
2018-04-18T14:46:35.202Z,13.03
2018-04-18T14:49:02.949Z,14.60
2018-04-18T14:51:30.573Z,14.70
2018-04-18T14:53:58.259Z,13.10
2018-04-18T14:56:25.936Z,12.90
2018-04-18T14:58:53.976Z,14.97
2018-04-18T15:01:21.714Z,14.87
2018-04-18T15:03:49.406Z,14.60
2018-04-18T15:06:17.142Z,13.37
2018-04-18T15:08:44.752Z,14.93
2018-04-18T15:11:12.550Z,15.50
2018-04-18T15:13:40.255Z,15.13
2018-04-18T15:16:07.918Z,15.80
2018-04-18T15:18:35.519Z,16.77
2018-04-18T15:21:03.219Z,16.73
2018-04-18T15:23:30.961Z,15.30
2018-04-18T15:25:58.924Z,15.23
2018-04-18T15:28:26.761Z,13.47
2018-04-18T15:30:54.661Z,14.23
2018-04-18T15:33:22.325Z,12.50
2018-04-18T15:35:50.414Z,13.40
2018-04-18T15:38:18.060Z,16.97
2018-04-18T15:40:45.927Z,14.73
2018-04-18T15:43:13.647Z,14.10
2018-04-18T15:45:41.265Z,14.77
2018-04-18T15:48:08.939Z,15.17
2018-04-18T15:50:36.613Z,16.80
2018-04-18T15:53:04.434Z,14.33
2018-04-18T15:55:32.040Z,13.60
2018-04-18T15:58:00.311Z,15.30
2018-04-18T16:00:28.009Z,11.70
2018-04-18T16:02:55.747Z,13.70
2018-04-18T16:05:23.383Z,10.60
2018-04-18T16:07:51.040Z,14.13
2018-04-18T16:10:19.070Z,13.90
2018-04-18T16:12:46.980Z,11.20
2018-04-18T16:15:14.696Z,12.87
2018-04-18T16:17:42.782Z,11.80
2018-04-18T16:20:10.696Z,13.43
2018-04-18T16:22:38.332Z,12.00
2018-04-18T16:25:06.076Z,11.43
2018-04-18T16:27:33.746Z,10.40
2018-04-18T16:30:01.359Z,10.77
2018-04-18T16:32:29.078Z,12.80
2018-04-18T16:34:56.745Z,11.00
2018-04-18T16:37:24.350Z,11.13
2018-04-18T16:39:52.132Z,12.03
2018-04-18T16:42:19.742Z,12.03
2018-04-18T16:44:47.354Z,11.13
2018-04-18T16:47:15.199Z,11.27
2018-04-18T16:49:42.824Z,10.90
2018-04-18T16:52:10.632Z,10.10
2018-04-18T16:54:38.351Z,9.50
2018-04-18T16:57:05.962Z,9.43
2018-04-18T16:59:33.649Z,11.27
2018-04-18T17:02:01.497Z,10.60
2018-04-18T17:04:29.121Z,9.90
2018-04-18T17:06:57.026Z,10.10
2018-04-18T17:09:24.637Z,10.83
2018-04-18T17:11:53.380Z,10.07
2018-04-18T17:14:20.999Z,11.00
2018-04-18T17:16:48.652Z,12.13
2018-04-18T17:19:16.685Z,11.00
2018-04-18T17:21:44.305Z,12.53
2018-04-18T17:24:11.902Z,11.83
2018-04-18T17:26:40.218Z,11.33
2018-04-18T17:29:07.958Z,11.60
2018-04-18T17:31:35.653Z,11.10
2018-04-18T17:34:03.341Z,11.00
2018-04-18T17:36:31.556Z,10.83
2018-04-18T17:38:59.425Z,11.70
2018-04-18T17:41:27.036Z,9.63
2018-04-18T17:43:55.103Z,12.83
2018-04-18T17:46:22.777Z,12.80
2018-04-18T17:48:50.390Z,11.63
2018-04-18T17:51:18.352Z,11.30
2018-04-18T17:53:46.008Z,11.70
2018-04-18T17:56:13.600Z,10.37
2018-04-18T17:58:41.212Z,11.43
2018-04-18T18:01:08.831Z,10.50
2018-04-18T18:03:36.524Z,10.20
2018-04-18T18:06:04.133Z,11.50
2018-04-18T18:08:32.018Z,8.57
2018-04-18T18:10:59.627Z,11.17
2018-04-18T18:13:27.385Z,11.43
2018-04-18T18:15:55.103Z,12.10
2018-04-18T18:18:22.701Z,12.60
2018-04-18T18:20:50.637Z,10.23
2018-04-18T18:23:18.235Z,10.60
2018-04-18T18:25:46.169Z,8.70
2018-04-18T18:28:13.753Z,10.77
2018-04-18T18:30:41.813Z,11.77
2018-04-18T18:33:09.468Z,11.27
2018-04-18T18:35:37.107Z,9.40
2018-04-18T18:38:04.944Z,9.70
2018-04-18T18:40:32.529Z,13.03
2018-04-18T18:43:00.347Z,11.03
2018-04-18T18:45:28.031Z,11.53
2018-04-18T18:47:55.812Z,11.20
2018-04-18T18:50:23.427Z,13.97
2018-04-18T18:52:51.352Z,13.63
2018-04-18T18:55:19.469Z,14.57
2018-04-18T18:57:47.118Z,15.87
2018-04-18T19:00:14.770Z,15.33
2018-04-18T19:02:42.517Z,15.30
2018-04-18T19:05:10.180Z,15.40
2018-04-18T19:07:37.841Z,15.77
2018-04-18T19:10:06.177Z,15.87
2018-04-18T19:12:34.048Z,18.43
2018-04-18T19:15:01.793Z,16.40
2018-04-18T19:17:29.452Z,17.00
2018-04-18T19:19:57.522Z,16.87
2018-04-18T19:22:25.191Z,16.10
2018-04-18T19:24:52.905Z,15.57
2018-04-18T19:27:20.519Z,16.13
2018-04-18T19:29:48.149Z,16.20
2018-04-18T19:32:16.241Z,13.83
2018-04-18T19:34:43.832Z,13.90
2018-04-18T19:37:11.697Z,13.23
2018-04-18T19:39:39.348Z,14.80
2018-04-18T19:42:07.025Z,16.60
2018-04-18T19:44:34.674Z,16.77
2018-04-18T19:47:02.397Z,15.63
2018-04-18T19:49:30.023Z,16.43
2018-04-18T19:51:58.057Z,16.40
2018-04-18T19:54:25.701Z,14.03
2018-04-18T19:56:53.452Z,14.73
2018-04-18T19:59:21.111Z,15.40
2018-04-18T20:01:48.756Z,18.70
2018-04-18T20:04:16.876Z,17.50
2018-04-18T20:06:44.671Z,18.47
2018-04-18T20:09:13.279Z,17.67
2018-04-18T20:11:41.043Z,16.27
2018-04-18T20:14:08.823Z,16.20
2018-04-18T20:16:36.481Z,17.67
2018-04-18T20:19:04.094Z,17.70
2018-04-18T20:21:31.703Z,18.47
2018-04-18T20:23:59.351Z,17.57
2018-04-18T20:26:27.048Z,17.40
2018-04-18T20:28:54.680Z,16.43
2018-04-18T20:31:22.311Z,17.30
2018-04-18T20:33:50.356Z,16.53
2018-04-18T20:36:18.190Z,17.57
2018-04-18T20:38:45.776Z,17.13
2018-04-18T20:41:13.457Z,18.23
2018-04-18T20:43:41.048Z,17.13
2018-04-18T20:46:08.724Z,17.90
2018-04-18T20:48:36.336Z,18.30
2018-04-18T20:51:03.939Z,17.57
2018-04-18T20:53:31.974Z,18.77
2018-04-18T20:55:59.636Z,16.10
2018-04-18T20:58:27.300Z,17.67
2018-04-18T21:00:54.998Z,18.23
2018-04-18T21:03:22.584Z,17.03
2018-04-18T21:05:50.276Z,16.37
2018-04-18T21:08:17.889Z,17.83
2018-04-18T21:10:46.139Z,19.03
2018-04-18T21:13:13.802Z,15.60
2018-04-18T21:15:41.465Z,17.07
2018-04-18T21:18:09.094Z,17.20
2018-04-18T21:20:37.069Z,17.20
2018-04-18T21:23:04.736Z,16.63
2018-04-18T21:25:32.355Z,17.20
2018-04-18T21:28:00.001Z,16.37
2018-04-18T21:30:27.660Z,16.60
2018-04-18T21:32:55.448Z,16.17
2018-04-18T21:35:23.140Z,15.63
2018-04-18T21:37:50.761Z,16.33
2018-04-18T21:40:18.381Z,17.33
2018-04-18T21:42:46.119Z,16.40
2018-04-18T21:47:43.555Z,15.60
2018-04-18T21:50:11.740Z,15.83
2018-04-18T21:52:39.845Z,18.37
2018-04-18T21:55:08.014Z,16.37
2018-04-18T21:57:36.246Z,16.40
2018-04-18T22:00:04.363Z,16.13
2018-04-18T22:02:32.234Z,16.00
2018-04-18T22:04:59.819Z,17.43
2018-04-18T22:07:27.750Z,16.37
2018-04-18T22:09:55.745Z,17.60
2018-04-18T22:12:23.447Z,17.90
2018-04-18T22:14:51.228Z,17.37
2018-04-18T22:17:18.872Z,17.33
2018-04-18T22:19:46.596Z,16.33
2018-04-18T22:22:14.679Z,16.83
2018-04-18T22:24:42.292Z,17.40
2018-04-18T22:27:09.936Z,16.20
2018-04-18T22:29:37.556Z,17.23
2018-04-18T22:32:05.157Z,16.77
2018-04-18T22:34:32.766Z,18.33
2018-04-18T22:37:00.375Z,19.03
2018-04-18T22:39:28.082Z,16.43
2018-04-18T22:41:55.694Z,17.40
2018-04-18T22:44:23.559Z,16.33
2018-04-18T22:46:51.250Z,16.70
2018-04-18T22:49:19.350Z,17.97
2018-04-18T22:51:47.415Z,18.43
2018-04-18T22:54:15.005Z,17.43
2018-04-18T22:56:42.593Z,17.33
2018-04-18T22:59:10.615Z,15.90
2018-04-18T23:01:38.215Z,16.20
2018-04-18T23:04:05.871Z,15.97
2018-04-18T23:06:33.536Z,17.20
2018-04-18T23:09:01.123Z,16.37
2018-04-18T23:11:29.091Z,17.93
2018-04-18T23:13:56.997Z,16.10
2018-04-18T23:16:24.593Z,16.40
2018-04-18T23:18:53.040Z,17.20
2018-04-18T23:21:20.709Z,16.20
2018-04-18T23:23:48.589Z,16.40
2018-04-18T23:26:16.366Z,16.33
2018-04-18T23:28:44.079Z,16.87
2018-04-18T23:31:12.443Z,17.73
2018-04-18T23:33:40.111Z,16.50
2018-04-18T23:36:07.724Z,16.70
2018-04-18T23:38:35.474Z,17.30
2018-04-18T23:41:03.457Z,16.23
2018-04-18T23:43:31.453Z,17.10
2018-04-18T23:45:59.109Z,16.03
2018-04-18T23:48:26.786Z,17.93
2018-04-18T23:50:54.601Z,18.00
2018-04-18T23:53:22.436Z,16.33
2018-04-18T23:55:50.501Z,16.50
2018-04-18T23:58:18.104Z,16.43
